createdAt,value
2018-08-04T00:47:13.918Z,14.97
2018-08-04T00:50:38.621Z,14.03
2018-08-04T00:54:03.273Z,14.63
2018-08-04T00:57:27.981Z,13.60
2018-08-04T01:00:52.627Z,14.27
2018-08-04T01:04:17.363Z,14.53
2018-08-04T01:07:42.039Z,14.70
2018-08-04T01:11:06.979Z,14.90
2018-08-04T01:14:31.616Z,15.40
2018-08-04T01:17:56.274Z,13.10
2018-08-04T01:21:20.950Z,15.03
2018-08-04T01:24:45.733Z,14.67
2018-08-04T01:28:10.426Z,13.90
2018-08-04T01:31:35.063Z,14.97
2018-08-04T01:34:59.749Z,14.10
2018-08-04T01:38:24.377Z,15.37
2018-08-04T01:41:49.033Z,14.63
2018-08-04T01:45:13.679Z,15.43
2018-08-04T01:48:38.309Z,14.90
2018-08-04T01:52:02.954Z,14.87
2018-08-04T01:55:28.594Z,15.00
2018-08-04T01:58:53.237Z,14.73
2018-08-04T02:02:17.884Z,14.10
2018-08-04T02:05:42.567Z,14.83
2018-08-04T02:09:09.504Z,14.90
2018-08-04T02:12:34.139Z,14.40
2018-08-04T02:15:59.393Z,14.10
2018-08-04T02:19:23.997Z,14.47
2018-08-04T02:22:48.655Z,15.73
2018-08-04T02:26:13.268Z,16.33
2018-08-04T02:29:37.918Z,15.60
2018-08-04T02:33:02.604Z,14.83
2018-08-04T02:36:27.265Z,15.27
2018-08-04T02:39:52.003Z,14.60
2018-08-04T02:43:16.686Z,14.50
2018-08-04T02:46:41.327Z,14.70
2018-08-04T02:50:07.131Z,15.33
2018-08-04T02:53:31.806Z,15.80
2018-08-04T02:56:57.538Z,14.33
2018-08-04T03:00:22.145Z,15.87
2018-08-04T03:03:46.755Z,14.57
2018-08-04T03:07:11.537Z,14.93
2018-08-04T03:10:36.151Z,15.93
2018-08-04T03:14:01.606Z,15.30
2018-08-04T03:17:26.303Z,15.07
2018-08-04T03:20:50.977Z,14.60
2018-08-04T03:24:15.591Z,14.87
2018-08-04T03:27:40.301Z,15.70
2018-08-04T03:31:04.962Z,13.90
2018-08-04T03:34:29.620Z,14.83
2018-08-04T03:37:54.285Z,15.30
2018-08-04T03:41:18.976Z,15.20
2018-08-04T03:44:43.688Z,15.70
2018-08-04T03:48:08.349Z,15.53
2018-08-04T03:51:32.997Z,15.10
2018-08-04T03:54:57.643Z,14.70
2018-08-04T03:58:24.137Z,14.03
2018-08-04T04:01:48.807Z,14.40
2018-08-04T04:05:13.484Z,15.83
2018-08-04T04:08:38.121Z,15.73
2018-08-04T04:12:02.760Z,14.60
2018-08-04T04:15:27.441Z,15.43
2018-08-04T04:18:52.112Z,15.23
2018-08-04T04:22:16.765Z,16.40
2018-08-04T04:25:41.505Z,15.33
2018-08-04T04:29:06.135Z,15.07
2018-08-04T04:32:31.749Z,15.57
2018-08-04T04:35:56.426Z,15.67
2018-08-04T04:39:21.221Z,15.63
2018-08-04T04:42:46.753Z,16.17
2018-08-04T04:46:11.393Z,15.47
2018-08-04T04:49:36.046Z,15.77
2018-08-04T04:53:00.673Z,15.80
2018-08-04T04:56:25.346Z,15.80
2018-08-04T04:59:50.039Z,16.10
2018-08-04T05:03:14.687Z,15.43
2018-08-04T05:06:39.333Z,15.90
2018-08-04T05:10:04.080Z,14.87
2018-08-04T05:13:28.800Z,16.30
2018-08-04T05:16:53.489Z,16.53
2018-08-04T05:20:18.173Z,15.83
2018-08-04T05:23:42.821Z,16.27
2018-08-04T05:27:07.597Z,15.80
2018-08-04T05:30:32.267Z,15.60
2018-08-04T05:33:56.901Z,16.47
2018-08-04T05:37:21.582Z,15.47
2018-08-04T05:40:46.244Z,15.87
2018-08-04T05:44:10.868Z,16.20
2018-08-04T05:47:35.581Z,15.63
2018-08-04T05:51:00.194Z,16.40
2018-08-04T05:54:24.792Z,15.77
2018-08-04T05:57:49.443Z,16.20
2018-08-04T06:01:14.343Z,15.93
2018-08-04T06:04:39.005Z,16.37
2018-08-04T06:08:03.844Z,16.90
2018-08-04T06:11:28.509Z,16.83
2018-08-04T06:14:53.276Z,15.87
2018-08-04T06:18:17.957Z,17.07
2018-08-04T06:21:42.573Z,16.73
2018-08-04T06:25:07.447Z,15.47
2018-08-04T06:28:32.348Z,16.97
2018-08-04T06:31:57.189Z,15.00
2018-08-04T06:35:21.871Z,15.90
2018-08-04T06:38:46.691Z,16.37
2018-08-04T06:42:11.458Z,18.23
2018-08-04T06:45:36.121Z,16.33
2018-08-04T06:49:00.852Z,16.93
2018-08-04T06:52:25.596Z,17.00
2018-08-04T06:55:50.253Z,16.57
2018-08-04T06:59:14.937Z,17.23
2018-08-04T07:02:39.611Z,17.20
2018-08-04T07:06:05.078Z,15.33
2018-08-04T07:09:29.711Z,16.93
2018-08-04T07:12:54.489Z,16.23
2018-08-04T07:16:19.213Z,16.73
2018-08-04T07:19:43.876Z,17.07
2018-08-04T07:23:08.622Z,16.50
2018-08-04T07:26:33.441Z,16.87
2018-08-04T07:29:58.207Z,17.70
2018-08-04T07:33:22.901Z,17.60
2018-08-04T07:36:47.888Z,17.03
2018-08-04T07:40:13.188Z,16.83
2018-08-04T07:43:37.828Z,16.03
2018-08-04T07:47:02.612Z,16.73
2018-08-04T07:50:27.404Z,16.07
2018-08-04T07:53:52.267Z,16.57
2018-08-04T07:57:17.785Z,16.73
2018-08-04T08:00:42.519Z,16.63
2018-08-04T08:13:07.165Z,15.70
2018-08-04T08:16:32.419Z,16.57
2018-08-04T08:19:57.101Z,17.60
2018-08-04T08:36:51.637Z,16.62
2018-08-04T08:40:16.368Z,17.15
2018-08-04T08:43:41.128Z,14.90
2018-08-04T08:47:05.967Z,16.02
2018-08-04T08:50:30.648Z,16.37
2018-08-04T08:53:57.556Z,16.23
2018-08-04T08:57:22.210Z,16.00
2018-08-04T09:00:46.886Z,15.48
2018-08-04T09:04:11.530Z,16.93
2018-08-04T09:07:36.236Z,13.45
2018-08-04T09:11:00.942Z,15.35
2018-08-04T09:14:25.630Z,15.45
2018-08-04T09:17:50.281Z,16.12
2018-08-04T09:21:14.964Z,16.02
2018-08-04T09:24:39.629Z,14.45
2018-08-04T09:28:04.372Z,15.30
2018-08-04T09:31:29.046Z,14.98
2018-08-04T09:34:53.727Z,13.72
2018-08-04T09:38:18.388Z,12.47
2018-08-04T09:41:43.094Z,11.65
2018-08-04T09:45:09.056Z,11.93
2018-08-04T09:48:33.864Z,13.18
2018-08-04T09:51:58.577Z,12.98
2018-08-04T09:55:23.322Z,12.30
2018-08-04T09:58:48.066Z,12.20
2018-08-04T10:02:13.974Z,12.10
2018-08-04T10:05:38.623Z,11.95
2018-08-04T10:09:03.942Z,12.85
2018-08-04T10:12:28.596Z,12.30
2018-08-04T10:15:53.275Z,12.35
2018-08-04T10:19:17.917Z,13.00
2018-08-04T10:22:42.687Z,12.63
2018-08-04T10:26:07.500Z,12.07
2018-08-04T10:29:32.181Z,13.30
2018-08-04T10:32:56.948Z,13.40
2018-08-04T10:36:21.707Z,11.57
2018-08-04T10:39:46.371Z,12.20
2018-08-04T10:43:11.367Z,11.90
2018-08-04T10:46:36.119Z,12.25
2018-08-04T10:50:00.801Z,11.90
2018-08-04T10:53:25.506Z,11.78
2018-08-04T10:56:50.172Z,11.20
2018-08-04T11:00:14.916Z,12.10
2018-08-04T11:03:39.557Z,12.03
2018-08-04T11:07:04.410Z,12.07
2018-08-04T11:10:29.214Z,11.80
2018-08-04T11:13:54.018Z,11.25
2018-08-04T11:17:23.058Z,12.20
2018-08-04T11:20:48.134Z,12.60
2018-08-04T11:24:13.190Z,12.07
2018-08-04T11:27:38.089Z,12.50
2018-08-04T11:31:03.090Z,12.03
2018-08-04T11:34:28.254Z,12.23
2018-08-04T11:37:54.397Z,11.93
2018-08-04T11:41:20.114Z,11.63
2018-08-04T11:44:46.430Z,12.18
2018-08-04T11:48:11.781Z,11.83
2018-08-04T11:51:37.815Z,10.82
2018-08-04T11:55:02.481Z,12.53
2018-08-04T11:58:27.156Z,10.85
2018-08-04T12:01:51.898Z,11.03
2018-08-04T12:05:16.589Z,11.30
2018-08-04T12:08:41.279Z,12.05
2018-08-04T12:12:07.058Z,10.70
2018-08-04T12:15:32.851Z,10.93
2018-08-04T12:18:57.784Z,10.45
2018-08-04T12:22:23.739Z,10.88
2018-08-04T12:25:48.496Z,11.20
2018-08-04T12:29:13.546Z,11.68
2018-08-04T12:32:38.521Z,10.28
2018-08-04T12:36:04.204Z,11.48
2018-08-04T12:39:29.499Z,10.45
2018-08-04T12:42:54.185Z,9.78
2018-08-04T12:46:19.700Z,10.10
2018-08-04T12:49:46.432Z,10.28
2018-08-04T12:53:11.172Z,10.18
2018-08-04T12:56:35.921Z,10.25
2018-08-04T13:00:00.762Z,10.88
2018-08-04T13:03:25.522Z,11.97
2018-08-04T13:06:50.344Z,11.12
2018-08-04T13:10:15.059Z,11.18
2018-08-04T13:13:39.822Z,11.65
2018-08-04T13:17:05.138Z,11.28
2018-08-04T13:20:29.976Z,11.35
2018-08-04T13:23:54.781Z,11.43
2018-08-04T13:27:19.550Z,11.63
2018-08-04T13:30:44.247Z,12.15
2018-08-04T13:34:09.084Z,11.60
2018-08-04T13:37:33.823Z,11.20
2018-08-04T13:40:58.584Z,11.75
2018-08-04T13:44:23.421Z,11.35
2018-08-04T13:47:48.080Z,11.50
2018-08-04T13:51:12.930Z,11.25
2018-08-04T13:54:37.603Z,11.65
2018-08-04T13:58:02.272Z,11.63
2018-08-04T14:01:27.282Z,11.38
2018-08-04T14:04:51.976Z,11.22
2018-08-04T14:08:16.644Z,11.43
2018-08-04T14:11:41.287Z,12.18
2018-08-04T14:15:06.548Z,11.33
2018-08-04T14:18:31.280Z,12.23
2018-08-04T14:21:56.084Z,11.15
2018-08-04T14:25:20.800Z,10.53
2018-08-04T14:28:45.519Z,11.10
2018-08-04T14:32:10.160Z,10.65
2018-08-04T14:35:34.815Z,10.75
2018-08-04T14:38:59.458Z,10.60
2018-08-04T14:42:24.224Z,10.75
2018-08-04T14:45:48.924Z,11.10
2018-08-04T14:49:13.583Z,11.10
2018-08-04T14:52:38.280Z,11.33
2018-08-04T14:56:02.942Z,11.05
2018-08-04T14:59:27.634Z,10.90
2018-08-04T15:02:52.446Z,10.18
2018-08-04T15:06:17.080Z,11.05
2018-08-04T15:09:41.788Z,10.45
2018-08-04T15:13:06.504Z,9.85
2018-08-04T15:16:31.237Z,10.43
2018-08-04T15:19:55.898Z,10.80
2018-08-04T15:23:20.549Z,9.93
2018-08-04T15:26:45.222Z,11.22
2018-08-04T15:30:09.986Z,10.10
2018-08-04T15:33:34.720Z,9.93
2018-08-04T15:36:59.389Z,10.00
2018-08-04T15:40:24.052Z,10.03
2018-08-04T15:43:48.776Z,10.05
2018-08-04T15:47:13.430Z,9.60
2018-08-04T15:50:38.168Z,9.58
2018-08-04T15:54:03.134Z,9.88
2018-08-04T15:57:27.940Z,9.23
2018-08-04T16:00:52.661Z,10.50
2018-08-04T16:04:17.345Z,9.38
2018-08-04T16:07:42.156Z,9.18
2018-08-04T16:11:07.182Z,9.08
2018-08-04T16:14:31.850Z,9.35
2018-08-04T16:17:56.681Z,9.90
2018-08-04T16:21:21.358Z,10.05
2018-08-04T16:24:46.166Z,9.75
2018-08-04T16:28:10.877Z,9.90
2018-08-04T16:31:35.741Z,9.68
2018-08-04T16:35:00.440Z,9.93
2018-08-04T16:38:25.169Z,10.05
2018-08-04T16:41:49.922Z,9.25
2018-08-04T16:45:14.549Z,9.25
2018-08-04T16:48:39.331Z,8.90
2018-08-04T16:52:04.094Z,9.38
2018-08-04T16:55:28.719Z,9.85
2018-08-04T16:58:53.323Z,9.65
2018-08-04T17:02:18.013Z,10.00
2018-08-04T17:05:42.716Z,10.68
2018-08-04T17:09:11.190Z,10.30
2018-08-04T17:12:35.961Z,9.90
2018-08-04T17:16:00.608Z,10.28
2018-08-04T17:19:25.447Z,10.78
2018-08-04T17:22:50.208Z,10.28
2018-08-04T17:26:14.931Z,10.43
2018-08-04T17:29:39.646Z,11.08
2018-08-04T17:33:04.353Z,10.85
2018-08-04T17:36:29.040Z,11.20
2018-08-04T17:39:53.822Z,10.35
2018-08-04T17:43:18.530Z,11.35
2018-08-04T17:46:43.314Z,11.20
2018-08-04T17:50:08.020Z,10.88
2018-08-04T17:53:32.682Z,11.43
2018-08-04T17:56:57.388Z,10.85
2018-08-04T18:00:21.989Z,10.88
2018-08-04T18:03:46.669Z,11.15
2018-08-04T18:07:11.480Z,10.30
2018-08-04T18:10:36.192Z,11.28
2018-08-04T18:14:00.824Z,10.95
2018-08-04T18:17:25.462Z,10.68
2018-08-04T18:20:50.202Z,10.80
2018-08-04T18:24:14.862Z,10.18
2018-08-04T18:27:39.567Z,10.72
2018-08-04T18:31:04.267Z,11.08
2018-08-04T18:34:29.011Z,11.22
2018-08-04T18:37:53.785Z,12.65
2018-08-04T18:41:18.541Z,11.73
2018-08-04T18:44:43.314Z,11.83
2018-08-04T18:48:08.066Z,11.28
2018-08-04T18:51:32.807Z,11.75
2018-08-04T18:54:57.736Z,12.15
2018-08-04T18:58:22.393Z,11.88
2018-08-04T19:01:47.135Z,11.28
2018-08-04T19:05:11.917Z,11.53
2018-08-04T19:08:36.653Z,11.85
2018-08-04T19:12:01.380Z,11.73
2018-08-04T19:15:26.110Z,12.13
2018-08-04T19:18:50.951Z,11.68
2018-08-04T19:22:15.673Z,11.75
2018-08-04T19:25:40.920Z,13.38
2018-08-04T19:29:05.658Z,13.53
2018-08-04T19:32:31.334Z,12.82
2018-08-04T19:35:56.127Z,13.60
2018-08-04T19:39:20.803Z,12.95
2018-08-04T19:42:45.618Z,13.20
2018-08-04T19:46:10.341Z,13.83
2018-08-04T19:49:35.106Z,12.58
2018-08-04T19:52:59.827Z,12.70
2018-08-04T19:56:24.439Z,12.53
2018-08-04T19:59:49.155Z,12.55
2018-08-04T20:03:13.849Z,12.73
2018-08-04T20:06:38.490Z,13.22
2018-08-04T20:10:03.253Z,13.40
2018-08-04T20:13:27.892Z,14.70
2018-08-04T20:16:52.648Z,15.30
2018-08-04T20:20:17.539Z,13.40
2018-08-04T20:23:42.545Z,12.98
2018-08-04T20:27:08.993Z,13.45
2018-08-04T20:30:34.018Z,12.88
2018-08-04T20:33:59.044Z,13.05
2018-08-04T20:37:23.712Z,13.25
2018-08-04T20:40:48.444Z,11.80
2018-08-04T20:44:13.468Z,13.00
2018-08-04T20:47:38.260Z,12.28
2018-08-04T20:52:08.486Z,12.43
2018-08-04T20:55:33.256Z,12.73
2018-08-04T20:58:57.913Z,13.43
2018-08-04T21:02:22.597Z,13.00
2018-08-04T21:05:47.248Z,13.08
2018-08-04T21:09:11.902Z,13.03
2018-08-04T21:12:36.637Z,13.15
2018-08-04T21:16:01.410Z,13.78
2018-08-04T21:19:26.522Z,14.03
2018-08-04T21:22:51.471Z,15.28
2018-08-04T21:26:16.079Z,15.10
2018-08-04T21:29:40.709Z,15.43
2018-08-04T21:33:05.476Z,14.40
2018-08-04T21:36:30.934Z,15.43
2018-08-04T21:39:55.679Z,15.13
2018-08-04T21:43:20.517Z,15.80
2018-08-04T21:46:49.304Z,14.98
2018-08-04T21:50:13.983Z,15.68
2018-08-04T21:53:38.770Z,14.47
2018-08-04T21:57:03.604Z,13.20
2018-08-04T22:00:28.427Z,45.48
2018-08-04T22:03:53.148Z,14.33
2018-08-04T22:08:00.050Z,14.68
2018-08-04T22:11:24.758Z,13.53
2018-08-04T22:14:49.428Z,13.53
2018-08-04T22:18:14.092Z,14.27
2018-08-04T22:21:38.773Z,13.80
2018-08-04T22:25:03.452Z,14.18
2018-08-04T22:28:28.092Z,12.53
2018-08-04T22:31:52.782Z,13.83
2018-08-04T22:35:17.508Z,13.93
2018-08-04T22:38:42.116Z,12.83
2018-08-04T22:42:07.077Z,13.27
2018-08-04T22:46:00.700Z,13.63
2018-08-04T22:49:25.345Z,12.63
2018-08-04T22:52:50.204Z,13.07
2018-08-04T22:56:14.828Z,13.27
2018-08-04T22:59:39.411Z,13.87
2018-08-04T23:03:04.191Z,13.27
2018-08-04T23:06:28.830Z,14.07
2018-08-04T23:09:53.449Z,13.43
2018-08-04T23:13:18.356Z,13.67
2018-08-04T23:16:42.980Z,14.07
2018-08-04T23:20:07.614Z,13.20
2018-08-04T23:23:32.279Z,14.40
2018-08-04T23:26:56.897Z,14.17
2018-08-04T23:30:22.116Z,13.97
2018-08-04T23:33:46.727Z,14.77
2018-08-04T23:37:11.272Z,14.30
2018-08-04T23:40:35.916Z,14.60
2018-08-04T23:44:00.541Z,14.10
2018-08-04T23:47:25.172Z,13.90
2018-08-04T23:50:49.828Z,14.20
2018-08-04T23:54:14.442Z,14.40
2018-08-04T23:57:39.096Z,14.00
